sensor_id;sensor_type;location;lat;lon;timestamp;pressure;altitude;pressure_sealevel;temperature;humidity
85163;BME280;75527;48.526;9.158;2024-01-30T00:01:52;98577.50;;;0.85;79.06
85163;BME280;75527;48.526;9.158;2024-01-30T00:04:18;98571.38;;;0.78;80.11
85163;BME280;75527;48.526;9.158;2024-01-30T00:06:43;98579.56;;;0.98;80.67
85163;BME280;75527;48.526;9.158;2024-01-30T00:09:09;98584.28;;;1.11;81.37
85163;BME280;75527;48.526;9.158;2024-01-30T00:11:36;98573.53;;;1.06;80.84
85163;BME280;75527;48.526;9.158;2024-01-30T00:14:01;98557.13;;;0.97;81.06
85163;BME280;75527;48.526;9.158;2024-01-30T00:16:28;98583.78;;;1.15;81.31
85163;BME280;75527;48.526;9.158;2024-01-30T00:18:54;98596.91;;;1.30;82.05
85163;BME280;75527;48.526;9.158;2024-01-30T00:21:20;98586.47;;;1.30;80.73
85163;BME280;75527;48.526;9.158;2024-01-30T00:23:46;98583.78;;;1.15;81.41
85163;BME280;75527;48.526;9.158;2024-01-30T00:26:11;98586.81;;;1.19;80.09
85163;BME280;75527;48.526;9.158;2024-01-30T00:28:37;98572.75;;;1.05;80.55
85163;BME280;75527;48.526;9.158;2024-01-30T00:31:03;98585.75;;;1.05;80.74
85163;BME280;75527;48.526;9.158;2024-01-30T00:33:29;98547.31;;;0.68;80.16
85163;BME280;75527;48.526;9.158;2024-01-30T00:35:54;98573.13;;;0.86;80.48
85163;BME280;75527;48.526;9.158;2024-01-30T00:38:19;98588.06;;;1.00;79.61
85163;BME280;75527;48.526;9.158;2024-01-30T00:40:45;98576.22;;;0.89;80.49
85163;BME280;75527;48.526;9.158;2024-01-30T00:43:10;98586.28;;;0.92;80.75
85163;BME280;75527;48.526;9.158;2024-01-30T00:45:35;98579.13;;;0.86;80.52
85163;BME280;75527;48.526;9.158;2024-01-30T00:48:01;98581.06;;;0.92;80.33
85163;BME280;75527;48.526;9.158;2024-01-30T00:50:26;98560.47;;;0.74;79.77
85163;BME280;75527;48.526;9.158;2024-01-30T00:52:51;98590.22;;;0.88;80.62
85163;BME280;75527;48.526;9.158;2024-01-30T00:55:17;98592.16;;;0.94;80.19
85163;BME280;75527;48.526;9.158;2024-01-30T00:57:42;98578.50;;;0.76;80.20
85163;BME280;75527;48.526;9.158;2024-01-30T01:00:08;98572.66;;;0.74;80.75
85163;BME280;75527;48.526;9.158;2024-01-30T01:02:35;98578.84;;;0.73;80.92
85163;BME280;75527;48.526;9.158;2024-01-30T01:05:01;98593.81;;;0.79;81.81
85163;BME280;75527;48.526;9.158;2024-01-30T01:07:27;98592.16;;;0.86;82.72
85163;BME280;75527;48.526;9.158;2024-01-30T01:09:52;98589.69;;;0.93;82.12
85163;BME280;75527;48.526;9.158;2024-01-30T01:12:17;98593.59;;;0.97;80.82
85163;BME280;75527;48.526;9.158;2024-01-30T01:14:43;98591.97;;;0.88;80.99
85163;BME280;75527;48.526;9.158;2024-01-30T01:17:08;98595.13;;;0.75;80.02
85163;BME280;75527;48.526;9.158;2024-01-30T01:19:33;98592.69;;;0.73;80.61
85163;BME280;75527;48.526;9.158;2024-01-30T01:21:59;98575.81;;;0.45;80.55
85163;BME280;75527;48.526;9.158;2024-01-30T01:24:24;98573.38;;;0.43;80.32
85163;BME280;75527;48.526;9.158;2024-01-30T01:26:49;98585.72;;;0.49;80.38
85163;BME280;75527;48.526;9.158;2024-01-30T01:29:15;98595.59;;;0.70;80.26
85163;BME280;75527;48.526;9.158;2024-01-30T01:31:41;98579.19;;;0.70;80.95
85163;BME280;75527;48.526;9.158;2024-01-30T01:34:13;98594.13;;;0.84;78.49
85163;BME280;75527;48.526;9.158;2024-01-30T01:36:39;98596.09;;;0.66;80.04
85163;BME280;75527;48.526;9.158;2024-01-30T01:39:04;98592.38;;;0.60;79.74
85163;BME280;75527;48.526;9.158;2024-01-30T01:41:31;98591.25;;;0.55;80.83
85163;BME280;75527;48.526;9.158;2024-01-30T01:43:57;98592.72;;;0.41;81.44
85163;BME280;75527;48.526;9.158;2024-01-30T01:46:22;98573.22;;;0.20;80.79
85163;BME280;75527;48.526;9.158;2024-01-30T01:48:48;98572.72;;;0.33;80.95
85163;BME280;75527;48.526;9.158;2024-01-30T01:51:14;98581.53;;;0.32;81.59
85163;BME280;75527;48.526;9.158;2024-01-30T01:53:39;98583.63;;;0.29;82.15
85163;BME280;75527;48.526;9.158;2024-01-30T01:56:05;98561.34;;;0.18;80.60
85163;BME280;75527;48.526;9.158;2024-01-30T01:58:31;98576.31;;;0.24;80.47
85163;BME280;75527;48.526;9.158;2024-01-30T02:00:58;98588.16;;;0.35;81.19
85163;BME280;75527;48.526;9.158;2024-01-30T02:03:23;98571.09;;;0.24;79.89
85163;BME280;75527;48.526;9.158;2024-01-30T02:05:50;98582.81;;;0.28;80.62
85163;BME280;75527;48.526;9.158;2024-01-30T02:08:16;98587.03;;;0.37;81.20
85163;BME280;75527;48.526;9.158;2024-01-30T02:10:41;98560.38;;;0.27;81.67
85163;BME280;75527;48.526;9.158;2024-01-30T02:13:06;98549.16;;;0.18;81.74
85163;BME280;75527;48.526;9.158;2024-01-30T02:15:32;98589.31;;;0.40;80.39
85163;BME280;75527;48.526;9.158;2024-01-30T02:17:57;98590.28;;;0.39;82.06
85163;BME280;75527;48.526;9.158;2024-01-30T02:20:24;98567.69;;;0.32;82.48
85163;BME280;75527;48.526;9.158;2024-01-30T02:22:52;98569.47;;;0.39;81.24
85163;BME280;75527;48.526;9.158;2024-01-30T02:25:17;98565.25;;;0.30;81.68
85163;BME280;75527;48.526;9.158;2024-01-30T02:27:43;98584.41;;;0.45;82.25
85163;BME280;75527;48.526;9.158;2024-01-30T02:30:08;98569.50;;;0.31;81.54
85163;BME280;75527;48.526;9.158;2024-01-30T02:32:34;98586.03;;;0.46;82.72
85163;BME280;75527;48.526;9.158;2024-01-30T02:34:59;98580.69;;;0.48;81.25
85163;BME280;75527;48.526;9.158;2024-01-30T02:37:24;98583.13;;;0.41;82.27
85163;BME280;75527;48.526;9.158;2024-01-30T02:39:50;98559.09;;;0.23;80.91
85163;BME280;75527;48.526;9.158;2024-01-30T02:42:15;98582.47;;;0.39;81.79
85163;BME280;75527;48.526;9.158;2024-01-30T02:44:40;98581.03;;;0.37;81.02
85163;BME280;75527;48.526;9.158;2024-01-30T02:47:06;98574.34;;;0.34;81.80
85163;BME280;75527;48.526;9.158;2024-01-30T02:49:31;98577.94;;;0.33;80.99
85163;BME280;75527;48.526;9.158;2024-01-30T02:51:57;98562.97;;;0.19;81.40
85163;BME280;75527;48.526;9.158;2024-01-30T02:54:22;98558.44;;;0.21;81.94
85163;BME280;75527;48.526;9.158;2024-01-30T02:56:47;98575.16;;;0.35;81.63
85163;BME280;75527;48.526;9.158;2024-01-30T02:59:13;98546.06;;;0.15;81.98
85163;BME280;75527;48.526;9.158;2024-01-30T03:01:44;98577.59;;;0.28;80.64
85163;BME280;75527;48.526;9.158;2024-01-30T03:04:11;98573.69;;;0.24;81.05
85163;BME280;75527;48.526;9.158;2024-01-30T03:06:36;98529.50;;;-0.09;80.18
85163;BME280;75527;48.526;9.158;2024-01-30T03:09:02;98561.84;;;0.05;81.39
85163;BME280;75527;48.526;9.158;2024-01-30T03:11:28;98572.41;;;0.12;83.03
85163;BME280;75527;48.526;9.158;2024-01-30T03:13:53;98552.09;;;-0.01;82.94
85163;BME280;75527;48.526;9.158;2024-01-30T03:16:18;98568.34;;;0.09;83.39
85163;BME280;75527;48.526;9.158;2024-01-30T03:18:44;98557.16;;;0.01;82.20
85163;BME280;75527;48.526;9.158;2024-01-30T03:21:09;98570.13;;;0.09;82.50
85163;BME280;75527;48.526;9.158;2024-01-30T03:23:34;98571.13;;;0.08;82.15
85163;BME280;75527;48.526;9.158;2024-01-30T03:25:59;98574.84;;;0.05;82.06
85163;BME280;75527;48.526;9.158;2024-01-30T03:28:25;98550.31;;;-0.09;82.37
85163;BME280;75527;48.526;9.158;2024-01-30T03:30:50;98548.34;;;-0.07;83.72
85163;BME280;75527;48.526;9.158;2024-01-30T03:33:15;98578.25;;;0.14;83.27
85163;BME280;75527;48.526;9.158;2024-01-30T03:35:40;98562.97;;;-0.06;83.94
85163;BME280;75527;48.526;9.158;2024-01-30T03:38:06;98572.72;;;0.09;83.65
85163;BME280;75527;48.526;9.158;2024-01-30T03:40:31;98571.13;;;0.08;83.56
85163;BME280;75527;48.526;9.158;2024-01-30T03:42:57;98542.81;;;0.05;82.78
85163;BME280;75527;48.526;9.158;2024-01-30T03:45:23;98582.31;;;0.24;82.42
85163;BME280;75527;48.526;9.158;2024-01-30T03:47:48;98576.97;;;0.26;82.37
85163;BME280;75527;48.526;9.158;2024-01-30T03:50:13;98580.38;;;0.27;83.02
85163;BME280;75527;48.526;9.158;2024-01-30T03:52:38;98574.38;;;0.26;81.95
85163;BME280;75527;48.526;9.158;2024-01-30T03:55:04;98579.88;;;0.23;82.21
85163;BME280;75527;48.526;9.158;2024-01-30T03:57:30;98566.56;;;0.18;82.40
85163;BME280;75527;48.526;9.158;2024-01-30T03:59:55;98552.41;;;-0.12;82.34
85163;BME280;75527;48.526;9.158;2024-01-30T04:02:20;98576.31;;;0.08;81.07
85163;BME280;75527;48.526;9.158;2024-01-30T04:04:46;98574.53;;;0.00;82.25
85163;BME280;75527;48.526;9.158;2024-01-30T04:07:11;98577.13;;;0.00;81.26
85163;BME280;75527;48.526;9.158;2024-01-30T04:09:38;98577.44;;;-0.11;81.50
85163;BME280;75527;48.526;9.158;2024-01-30T04:12:03;98581.34;;;-0.15;82.04
85163;BME280;75527;48.526;9.158;2024-01-30T04:14:29;98569.31;;;-0.24;81.75
85163;BME280;75527;48.526;9.158;2024-01-30T04:16:54;98570.09;;;-0.16;81.35
85163;BME280;75527;48.526;9.158;2024-01-30T04:19:19;98577.75;;;-0.22;81.71
85163;BME280;75527;48.526;9.158;2024-01-30T04:21:45;98554.97;;;-0.37;83.04
85163;BME280;75527;48.526;9.158;2024-01-30T04:24:10;98574.66;;;-0.26;83.19
85163;BME280;75527;48.526;9.158;2024-01-30T04:26:35;98576.28;;;-0.25;83.14
85163;BME280;75527;48.526;9.158;2024-01-30T04:29:01;98562.94;;;-0.38;82.87
85163;BME280;75527;48.526;9.158;2024-01-30T04:31:27;98577.56;;;-0.29;81.57
85163;BME280;75527;48.526;9.158;2024-01-30T04:33:53;98577.88;;;-0.32;83.56
85163;BME280;75527;48.526;9.158;2024-01-30T04:36:18;98574.31;;;-0.39;83.76
85163;BME280;75527;48.526;9.158;2024-01-30T04:38:43;98555.13;;;-0.55;83.25
85163;BME280;75527;48.526;9.158;2024-01-30T04:41:08;98558.06;;;-0.49;83.54
85163;BME280;75527;48.526;9.158;2024-01-30T04:43:34;98577.06;;;-0.41;82.71
85163;BME280;75527;48.526;9.158;2024-01-30T04:45:59;98579.00;;;-0.43;82.53
85163;BME280;75527;48.526;9.158;2024-01-30T04:48:24;98570.06;;;-0.48;81.46
85163;BME280;75527;48.526;9.158;2024-01-30T04:50:50;98576.88;;;-0.56;81.89
85163;BME280;75527;48.526;9.158;2024-01-30T04:53:15;98583.66;;;-0.63;81.21
85163;BME280;75527;48.526;9.158;2024-01-30T04:55:40;98590.97;;;-0.66;83.10
85163;BME280;75527;48.526;9.158;2024-01-30T04:58:05;98589.47;;;-0.77;83.27
85163;BME280;75527;48.526;9.158;2024-01-30T05:00:31;98592.88;;;-0.76;82.77
85163;BME280;75527;48.526;9.158;2024-01-30T05:02:56;98567.03;;;-0.86;82.79
85163;BME280;75527;48.526;9.158;2024-01-30T05:05:21;98589.94;;;-0.82;81.80
85163;BME280;75527;48.526;9.158;2024-01-30T05:07:47;98573.31;;;-0.97;82.68
85163;BME280;75527;48.526;9.158;2024-01-30T05:10:12;98593.00;;;-0.86;81.98
85163;BME280;75527;48.526;9.158;2024-01-30T05:12:39;98590.25;;;-0.85;81.72
85163;BME280;75527;48.526;9.158;2024-01-30T05:15:04;98594.91;;;-0.88;82.42
85163;BME280;75527;48.526;9.158;2024-01-30T05:17:29;98585.84;;;-0.84;82.53
85163;BME280;75527;48.526;9.158;2024-01-30T05:19:55;98595.75;;;-0.88;81.76
85163;BME280;75527;48.526;9.158;2024-01-30T05:22:20;98587.75;;;-0.94;82.21
85163;BME280;75527;48.526;9.158;2024-01-30T05:24:45;98566.97;;;-1.02;82.35
85163;BME280;75527;48.526;9.158;2024-01-30T05:27:10;98578.06;;;-0.92;82.15
85163;BME280;75527;48.526;9.158;2024-01-30T05:29:38;98581.28;;;-0.90;82.75
85163;BME280;75527;48.526;9.158;2024-01-30T05:32:03;98589.44;;;-0.85;83.32
85163;BME280;75527;48.526;9.158;2024-01-30T05:34:30;98589.13;;;-0.82;82.37
85163;BME280;75527;48.526;9.158;2024-01-30T05:36:55;98591.03;;;-0.84;81.59
85163;BME280;75527;48.526;9.158;2024-01-30T05:39:21;98577.34;;;-1.02;82.24
85163;BME280;75527;48.526;9.158;2024-01-30T05:41:46;98593.00;;;-0.86;82.89
85163;BME280;75527;48.526;9.158;2024-01-30T05:44:11;98572.16;;;-1.02;82.64
85163;BME280;75527;48.526;9.158;2024-01-30T05:46:37;98587.47;;;-0.91;82.68
85163;BME280;75527;48.526;9.158;2024-01-30T05:49:02;98565.31;;;-1.03;82.09
85163;BME280;75527;48.526;9.158;2024-01-30T05:51:27;98590.06;;;-0.91;82.67
85163;BME280;75527;48.526;9.158;2024-01-30T05:53:53;98592.50;;;-0.90;82.59
85163;BME280;75527;48.526;9.158;2024-01-30T05:56:18;98584.19;;;-0.93;82.72
85163;BME280;75527;48.526;9.158;2024-01-30T05:58:44;98566.41;;;-1.14;82.46
85163;BME280;75527;48.526;9.158;2024-01-30T06:01:09;98596.72;;;-0.89;82.78
85163;BME280;75527;48.526;9.158;2024-01-30T06:03:34;98580.75;;;-1.02;81.87
85163;BME280;75527;48.526;9.158;2024-01-30T06:06:00;98587.28;;;-0.98;84.11
85163;BME280;75527;48.526;9.158;2024-01-30T06:08:25;98599.13;;;-0.95;84.71
85163;BME280;75527;48.526;9.158;2024-01-30T06:10:50;98603.66;;;-0.97;84.27
85163;BME280;75527;48.526;9.158;2024-01-30T06:13:15;98599.41;;;-0.98;84.09
85163;BME280;75527;48.526;9.158;2024-01-30T06:15:41;98589.38;;;-1.01;84.33
85163;BME280;75527;48.526;9.158;2024-01-30T06:18:06;98601.75;;;-0.87;84.83
85163;BME280;75527;48.526;9.158;2024-01-30T06:20:31;98602.47;;;-0.77;85.39
85163;BME280;75527;48.526;9.158;2024-01-30T06:22:57;98592.88;;;-0.76;85.60
85163;BME280;75527;48.526;9.158;2024-01-30T06:25:22;98573.19;;;-0.87;85.47
85163;BME280;75527;48.526;9.158;2024-01-30T06:27:47;98592.53;;;-0.73;84.64
85163;BME280;75527;48.526;9.158;2024-01-30T06:30:13;98614.41;;;-0.50;85.39
85163;BME280;75527;48.526;9.158;2024-01-30T06:32:38;98612.78;;;-0.51;85.41
85163;BME280;75527;48.526;9.158;2024-01-30T06:35:04;98593.78;;;-0.51;84.38
85163;BME280;75527;48.526;9.158;2024-01-30T06:37:30;98595.75;;;-0.37;84.63
85163;BME280;75527;48.526;9.158;2024-01-30T06:39:56;98611.50;;;-0.39;84.03
85163;BME280;75527;48.526;9.158;2024-01-30T06:42:21;98606.44;;;-0.48;83.98
85163;BME280;75527;48.526;9.158;2024-01-30T06:44:46;98613.25;;;-0.47;83.58
85163;BME280;75527;48.526;9.158;2024-01-30T06:47:13;98610.31;;;-0.53;84.52
85163;BME280;75527;48.526;9.158;2024-01-30T06:49:38;98582.84;;;-0.63;84.23
85163;BME280;75527;48.526;9.158;2024-01-30T06:52:06;98611.97;;;-0.51;83.77
85163;BME280;75527;48.526;9.158;2024-01-30T06:54:34;98578.28;;;-0.77;82.44
85163;BME280;75527;48.526;9.158;2024-01-30T06:57:00;98609.78;;;-0.64;82.35
85163;BME280;75527;48.526;9.158;2024-01-30T06:59:25;98600.63;;;-0.85;82.95
85163;BME280;75527;48.526;9.158;2024-01-30T07:01:50;98596.44;;;-0.77;83.20
85163;BME280;75527;48.526;9.158;2024-01-30T07:04:16;98612.97;;;-0.79;82.31
85163;BME280;75527;48.526;9.158;2024-01-30T07:06:41;98601.72;;;-0.95;82.89
85163;BME280;75527;48.526;9.158;2024-01-30T07:09:07;98619.09;;;-0.96;82.86
85163;BME280;75527;48.526;9.158;2024-01-30T07:11:33;98613.00;;;-1.13;83.40
85163;BME280;75527;48.526;9.158;2024-01-30T07:13:59;98616.69;;;-1.15;83.62
85163;BME280;75527;48.526;9.158;2024-01-30T07:16:24;98631.00;;;-1.11;82.66
85163;BME280;75527;48.526;9.158;2024-01-30T07:18:49;98619.72;;;-1.28;82.94
85163;BME280;75527;48.526;9.158;2024-01-30T07:21:15;98639.03;;;-1.22;82.88
85163;BME280;75527;48.526;9.158;2024-01-30T07:23:40;98639.31;;;-1.34;84.60
85163;BME280;75527;48.526;9.158;2024-01-30T07:26:07;98628.75;;;-1.32;84.00
85163;BME280;75527;48.526;9.158;2024-01-30T07:28:33;98637.25;;;-1.22;83.52
85163;BME280;75527;48.526;9.158;2024-01-30T07:30:59;98643.09;;;-1.20;84.14
85163;BME280;75527;48.526;9.158;2024-01-30T07:33:24;98595.50;;;-1.37;84.42
85163;BME280;75527;48.526;9.158;2024-01-30T07:35:49;98623.03;;;-1.18;83.86
85163;BME280;75527;48.526;9.158;2024-01-30T07:38:15;98641.94;;;-0.99;83.86
85163;BME280;75527;48.526;9.158;2024-01-30T07:40:40;98621.97;;;-0.99;83.63
85163;BME280;75527;48.526;9.158;2024-01-30T07:43:06;98627.91;;;-0.81;83.63
85163;BME280;75527;48.526;9.158;2024-01-30T07:45:31;98618.81;;;-0.85;83.51
85163;BME280;75527;48.526;9.158;2024-01-30T07:47:58;98624.06;;;-0.68;83.74
85163;BME280;75527;48.526;9.158;2024-01-30T07:50:25;98630.47;;;-0.55;83.77
85163;BME280;75527;48.526;9.158;2024-01-30T07:52:50;98614.06;;;-0.55;83.90
85163;BME280;75527;48.526;9.158;2024-01-30T07:55:19;98626.28;;;-0.39;83.91
85163;BME280;75527;48.526;9.158;2024-01-30T07:57:45;98631.81;;;-0.26;83.86
85163;BME280;75527;48.526;9.158;2024-01-30T08:00:11;98598.03;;;-0.26;82.95
85163;BME280;75527;48.526;9.158;2024-01-30T08:02:37;98635.75;;;-0.06;83.05
85163;BME280;75527;48.526;9.158;2024-01-30T08:05:02;98632.56;;;0.01;82.78
85163;BME280;75527;48.526;9.158;2024-01-30T08:07:27;98637.25;;;0.13;81.71
85163;BME280;75527;48.526;9.158;2024-01-30T08:09:54;98625.41;;;0.11;82.73
85163;BME280;75527;48.526;9.158;2024-01-30T08:12:20;98632.22;;;0.20;81.72
85163;BME280;75527;48.526;9.158;2024-01-30T08:14:45;98635.66;;;0.29;81.35
85163;BME280;75527;48.526;9.158;2024-01-30T08:17:10;98629.47;;;0.21;83.00
85163;BME280;75527;48.526;9.158;2024-01-30T08:19:36;98620.53;;;0.32;81.49
85163;BME280;75527;48.526;9.158;2024-01-30T08:22:01;98627.69;;;0.55;81.71
85163;BME280;75527;48.526;9.158;2024-01-30T08:24:26;98614.84;;;0.45;80.07
85163;BME280;75527;48.526;9.158;2024-01-30T08:26:51;98637.94;;;0.72;80.33
85163;BME280;75527;48.526;9.158;2024-01-30T08:29:17;98610.41;;;0.62;81.08
85163;BME280;75527;48.526;9.158;2024-01-30T08:31:42;98629.28;;;0.80;81.23
85163;BME280;75527;48.526;9.158;2024-01-30T08:34:07;98620.66;;;0.71;81.36
85163;BME280;75527;48.526;9.158;2024-01-30T08:36:33;98634.78;;;0.93;80.33
85163;BME280;75527;48.526;9.158;2024-01-30T08:38:58;98618.50;;;0.99;80.21
85163;BME280;75527;48.526;9.158;2024-01-30T08:41:23;98607.41;;;0.97;80.26
85163;BME280;75527;48.526;9.158;2024-01-30T08:43:49;98625.75;;;1.20;79.43
85163;BME280;75527;48.526;9.158;2024-01-30T08:46:17;98613.41;;;1.14;80.20
85163;BME280;75527;48.526;9.158;2024-01-30T08:48:43;98627.69;;;1.26;80.48
85163;BME280;75527;48.526;9.158;2024-01-30T08:51:09;98620.34;;;1.30;77.99
85163;BME280;75527;48.526;9.158;2024-01-30T08:53:34;98631.41;;;1.32;78.10
85163;BME280;75527;48.526;9.158;2024-01-30T08:56:01;98628.63;;;1.34;79.24
85163;BME280;75527;48.526;9.158;2024-01-30T08:58:26;98636.13;;;1.37;77.90
85163;BME280;75527;48.526;9.158;2024-01-30T09:00:52;98622.47;;;1.26;78.44
85163;BME280;75527;48.526;9.158;2024-01-30T09:03:17;98572.59;;;0.98;77.34
85163;BME280;75527;48.526;9.158;2024-01-30T09:05:43;98640.13;;;1.55;78.89
85163;BME280;75527;48.526;9.158;2024-01-30T09:08:08;98635.50;;;1.66;78.28
85163;BME280;75527;48.526;9.158;2024-01-30T09:10:33;98637.72;;;1.77;77.45
85163;BME280;75527;48.526;9.158;2024-01-30T09:12:58;98625.63;;;1.84;77.66
85163;BME280;75527;48.526;9.158;2024-01-30T09:15:24;98631.09;;;1.97;77.81
85163;BME280;75527;48.526;9.158;2024-01-30T09:17:49;98605.00;;;1.97;76.93
85163;BME280;75527;48.526;9.158;2024-01-30T09:20:15;98630.56;;;2.25;75.66
85163;BME280;75527;48.526;9.158;2024-01-30T09:22:40;98623.72;;;2.24;75.63
85163;BME280;75527;48.526;9.158;2024-01-30T09:25:06;98648.28;;;2.52;75.30
85163;BME280;75527;48.526;9.158;2024-01-30T09:27:31;98648.47;;;2.51;74.58
85163;BME280;75527;48.526;9.158;2024-01-30T09:29:57;98651.03;;;2.59;76.03
85163;BME280;75527;48.526;9.158;2024-01-30T09:32:22;98625.34;;;2.63;74.25
85163;BME280;75527;48.526;9.158;2024-01-30T09:34:47;98648.38;;;2.82;74.04
85163;BME280;75527;48.526;9.158;2024-01-30T09:37:12;98627.13;;;2.85;74.54
85163;BME280;75527;48.526;9.158;2024-01-30T09:39:40;98615.13;;;2.76;74.38
85163;BME280;75527;48.526;9.158;2024-01-30T09:42:14;98647.84;;;3.01;74.34
85163;BME280;75527;48.526;9.158;2024-01-30T09:44:43;98634.50;;;2.81;74.90
85163;BME280;75527;48.526;9.158;2024-01-30T09:47:09;98646.66;;;2.89;73.36
85163;BME280;75527;48.526;9.158;2024-01-30T09:49:35;98643.91;;;3.05;72.49
85163;BME280;75527;48.526;9.158;2024-01-30T09:52:02;98644.59;;;3.14;73.35
85163;BME280;75527;48.526;9.158;2024-01-30T09:54:30;98647.94;;;3.23;72.59
85163;BME280;75527;48.526;9.158;2024-01-30T09:56:55;98651.38;;;3.23;73.83
85163;BME280;75527;48.526;9.158;2024-01-30T09:59:20;98650.66;;;3.29;74.02
85163;BME280;75527;48.526;9.158;2024-01-30T10:01:46;98661.03;;;3.52;72.38
85163;BME280;75527;48.526;9.158;2024-01-30T10:04:11;98628.00;;;3.51;72.88
85163;BME280;75527;48.526;9.158;2024-01-30T10:06:37;98656.91;;;3.79;71.93
85163;BME280;75527;48.526;9.158;2024-01-30T10:09:02;98652.41;;;3.88;70.86
85163;BME280;75527;48.526;9.158;2024-01-30T10:11:27;98655.88;;;3.95;71.67
85163;BME280;75527;48.526;9.158;2024-01-30T10:13:53;98657.31;;;3.98;69.96
85163;BME280;75527;48.526;9.158;2024-01-30T10:16:19;98649.91;;;4.01;69.97
85163;BME280;75527;48.526;9.158;2024-01-30T10:18:44;98656.84;;;4.09;68.88
85163;BME280;75527;48.526;9.158;2024-01-30T10:21:09;98650.16;;;4.06;69.42
85163;BME280;75527;48.526;9.158;2024-01-30T10:23:35;98649.97;;;4.08;69.83
85163;BME280;75527;48.526;9.158;2024-01-30T10:26:03;98641.91;;;4.24;69.29
85163;BME280;75527;48.526;9.158;2024-01-30T10:28:29;98646.63;;;4.35;70.43
85163;BME280;75527;48.526;9.158;2024-01-30T10:30:59;98649.00;;;4.52;70.45
85163;BME280;75527;48.526;9.158;2024-01-30T10:33:25;98631.47;;;4.52;69.67
85163;BME280;75527;48.526;9.158;2024-01-30T10:35:51;98635.31;;;4.56;68.87
85163;BME280;75527;48.526;9.158;2024-01-30T10:38:19;98645.28;;;4.67;67.47
85163;BME280;75527;48.526;9.158;2024-01-30T10:40:45;98640.81;;;4.61;68.68
85163;BME280;75527;48.526;9.158;2024-01-30T10:43:15;98625.75;;;4.70;67.72
85163;BME280;75527;48.526;9.158;2024-01-30T10:45:46;98642.84;;;4.94;67.39
85163;BME280;75527;48.526;9.158;2024-01-30T10:48:13;98627.69;;;4.89;67.04
85163;BME280;75527;48.526;9.158;2024-01-30T10:50:40;98640.09;;;5.02;65.71
85163;BME280;75527;48.526;9.158;2024-01-30T10:53:05;98617.13;;;5.04;66.42
85163;BME280;75527;48.526;9.158;2024-01-30T10:55:33;98621.91;;;5.29;64.99
85163;BME280;75527;48.526;9.158;2024-01-30T10:57:59;98634.47;;;5.46;65.72
85163;BME280;75527;48.526;9.158;2024-01-30T11:00:25;98634.94;;;5.57;66.30
85163;BME280;75527;48.526;9.158;2024-01-30T11:02:51;98625.47;;;5.62;66.01
85163;BME280;75527;48.526;9.158;2024-01-30T11:05:24;98624.50;;;5.77;64.88
85163;BME280;75527;48.526;9.158;2024-01-30T11:07:52;98618.22;;;5.64;65.93
85163;BME280;75527;48.526;9.158;2024-01-30T11:10:17;98623.13;;;5.81;64.99
85163;BME280;75527;48.526;9.158;2024-01-30T11:12:43;98626.19;;;5.91;64.76
85163;BME280;75527;48.526;9.158;2024-01-30T11:15:15;98629.06;;;5.96;65.10
85163;BME280;75527;48.526;9.158;2024-01-30T11:17:51;98628.25;;;6.09;66.71
85163;BME280;75527;48.526;9.158;2024-01-30T11:20:30;98615.59;;;6.25;63.71
85163;BME280;75527;48.526;9.158;2024-01-30T11:22:56;98616.81;;;6.36;64.10
85163;BME280;75527;48.526;9.158;2024-01-30T11:25:23;98623.88;;;6.49;62.71
85163;BME280;75527;48.526;9.158;2024-01-30T11:27:53;98590.09;;;6.46;61.79
85163;BME280;75527;48.526;9.158;2024-01-30T11:33:07;98613.72;;;7.05;62.00
85163;BME280;75527;48.526;9.158;2024-01-30T11:35:38;98609.66;;;7.16;60.65
85163;BME280;75527;48.526;9.158;2024-01-30T11:38:08;98564.72;;;7.24;60.43
85163;BME280;75527;48.526;9.158;2024-01-30T11:40:34;98609.84;;;7.73;59.55
85163;BME280;75527;48.526;9.158;2024-01-30T11:43:01;98603.78;;;7.72;61.23
85163;BME280;75527;48.526;9.158;2024-01-30T11:45:28;98606.97;;;7.81;62.24
85163;BME280;75527;48.526;9.158;2024-01-30T11:47:53;98596.47;;;7.74;61.56
85163;BME280;75527;48.526;9.158;2024-01-30T11:50:19;98587.56;;;7.75;59.10
85163;BME280;75527;48.526;9.158;2024-01-30T11:52:45;98605.00;;;8.08;58.37
85163;BME280;75527;48.526;9.158;2024-01-30T11:55:10;98586.22;;;8.29;58.38
85163;BME280;75527;48.526;9.158;2024-01-30T11:57:37;98587.75;;;8.69;57.53
85163;BME280;75527;48.526;9.158;2024-01-30T12:00:06;98590.06;;;9.02;57.27
85163;BME280;75527;48.526;9.158;2024-01-30T12:02:42;98581.28;;;8.90;57.48
85163;BME280;75527;48.526;9.158;2024-01-30T12:05:08;98575.38;;;8.87;59.53
85163;BME280;75527;48.526;9.158;2024-01-30T12:07:34;98590.88;;;9.02;57.67
85163;BME280;75527;48.526;9.158;2024-01-30T12:10:00;98578.78;;;8.95;57.35
85163;BME280;75527;48.526;9.158;2024-01-30T12:12:26;98567.03;;;9.09;56.79
85163;BME280;75527;48.526;9.158;2024-01-30T12:14:53;98586.94;;;9.11;59.23
85163;BME280;75527;48.526;9.158;2024-01-30T12:17:31;98578.94;;;9.00;57.81
85163;BME280;75527;48.526;9.158;2024-01-30T12:20:14;98576.66;;;8.85;57.98
85163;BME280;75527;48.526;9.158;2024-01-30T12:22:49;98570.03;;;8.76;58.09
85163;BME280;75527;48.526;9.158;2024-01-30T12:25:19;98553.66;;;8.67;57.61
85163;BME280;75527;48.526;9.158;2024-01-30T12:27:49;98572.75;;;8.69;57.11
85163;BME280;75527;48.526;9.158;2024-01-30T12:30:15;98561.16;;;8.70;58.37
85163;BME280;75527;48.526;9.158;2024-01-30T12:32:42;98559.09;;;8.72;58.56
85163;BME280;75527;48.526;9.158;2024-01-30T12:35:10;98561.69;;;8.79;58.36
85163;BME280;75527;48.526;9.158;2024-01-30T12:37:35;98543.81;;;8.81;59.18
85163;BME280;75527;48.526;9.158;2024-01-30T12:40:01;98551.59;;;8.94;60.36
85163;BME280;75527;48.526;9.158;2024-01-30T12:42:27;98549.22;;;9.04;59.98
85163;BME280;75527;48.526;9.158;2024-01-30T12:44:53;98561.88;;;9.21;59.13
85163;BME280;75527;48.526;9.158;2024-01-30T12:47:18;98556.47;;;9.46;58.16
85163;BME280;75527;48.526;9.158;2024-01-30T12:49:46;98545.91;;;9.46;56.74
85163;BME280;75527;48.526;9.158;2024-01-30T12:52:11;98558.91;;;9.77;56.13
85163;BME280;75527;48.526;9.158;2024-01-30T12:54:37;98542.56;;;10.10;54.54
85163;BME280;75527;48.526;9.158;2024-01-30T12:57:03;98546.66;;;10.36;53.54
85163;BME280;75527;48.526;9.158;2024-01-30T12:59:29;98543.69;;;10.68;52.11
85163;BME280;75527;48.526;9.158;2024-01-30T13:01:54;98556.97;;;11.20;50.80
85163;BME280;75527;48.526;9.158;2024-01-30T13:04:19;98554.97;;;11.67;48.98